Engelhard, North Carolina
Current Conditions -  °F | °C
As of 2:56 PM on Thursday 29 Jan 2015 (Local Time) from K2DP Reporting Station
Clear Clear  
Wind Chill: 37°   Ceiling: Unl
Heat Index: 41°   Visibility: 10mi
Dew Point: 27°   Wind: 6mph
Humidity: 58%   Direction: 150°SSE
Pressure: 30.25"   Gusts: NA
Location:  35.51°N, 76°W
Report Text: K2DP 291956Z AUTO 15005KT 10SM CLR 05/M03 A3025 RMK AO2 SLPNO T00501026
Loading
Personal Weather Stations






























Interactive Weather Map New forecast layout! Learn more

10-Day Weather Forecast

Advertisements
Track Severe Weather on mobile